7PN3 weather

Suburban General Hospital Heliport
Norristown, Pennsylvania, United States

Public forecast

Using degrees Fahrenheit for public forecast. Weather courtesy of forecast.io.

METAR (pilot weather report)

Closest report is Wings Field, 4.0 nm (7.3 km) E. Retrieved 2019/07/21 05:35 UTC (19 minutes ago):

KLOM 210535Z AUTO 27004KT 10SM CLR 29/24 A2984 RMK AO2 T02870245

TAF (pilot weather forecast)

Forecast is more than 12 hours old.

Closest forecast is Northeast Philadelphia Airport, 16.1 nm (29.8 km) ESE. Retrieved 2019/07/20 00:36 UTC (1 day ago):

TAF KPNE 202334Z 2100/2124 26010KT P6SM SCT040 FM210300 25005KT P6SM SCT090 FM211200 29007KT P6SM SCT120 FM211700 27011G18KT P6SM SCT040 FM212300 27010KT P6SM SCT040